Have a Safe July 4th! 

Flight Track Log - Related Links

Times and Time Zones

All times are in EDT time to prevent confusion due to time zone crossing. See the SWA3937 flight status page for this flight to view local times or setup timezone preferences in your user account.

Time Position Orientation Groundspeed Altitude Reporting Facility
EDT Latitude Longitude Course Direction KTS MPH feet Rate Location/Type
Tue 02:58:10 PM 33.4333 -112.0333 257° West 152 175 1,800  Level Phoenix TRACON
Tue 02:59:35 PM 33.4167 -112.1167 257° West 214 246 4,600 2,000 Climbing Phoenix TRACON
Tue 03:00:16 PM 33.3994 -112.1506 239° Southwest 220 253 6,000 1,981 Climbing Albuquerque Center
Tue 03:01:18 PM 33.3267 -112.1322 168° South 265 305 8,000 1,452 Climbing Albuquerque Center
Tue 03:02:20 PM 33.2739 -112.0667 134° Southeast 281 323 9,000 1,415 Climbing Albuquerque Center
Tue 03:03:21 PM 33.2586 -111.9692 101° East 337 388 10,900 2,439 Climbing Albuquerque Center
Tue 03:04:23 PM 33.3050 -111.8583 63° Northeast 376 433 14,000 2,855 Climbing Albuquerque Center
Tue 03:05:25 PM 33.3533 -111.7403 64° Northeast 395 455 16,800 2,634 Climbing Albuquerque Center
Tue 03:06:26 PM 33.4047 -111.6156 64° Northeast 417 480 19,400 2,634 Climbing Albuquerque Center
Tue 03:07:28 PM 33.4697 -111.4583 64° Northeast 443 510 22,200 2,488 Climbing Albuquerque Center
Tue 03:08:29 PM 33.5092 -111.3156 72° East 458 527 24,500 1,951 Climbing Albuquerque Center
Tue 03:09:31 PM 33.5264 -111.1636 82° East 464 534 26,200 1,645 Climbing Albuquerque Center
Tue 03:10:33 PM 33.5436 -111.0058 82° East 477 549 27,900 1,561 Climbing Albuquerque Center
Tue 03:11:34 PM 33.5719 -110.8414 78° East 499 574 29,400 1,415 Climbing Albuquerque Center
Tue 03:12:36 PM 33.6211 -110.6808 70° East 511 588 30,800 1,597 Climbing Albuquerque Center
Tue 03:13:38 PM 33.6622 -110.4811 76° East 517 595 32,700 1,707 Climbing Albuquerque Center
Tue 03:14:39 PM 33.6911 -110.3372 76° East 512 589 34,300 1,415 Climbing Albuquerque Center
Tue 03:15:41 PM 33.7247 -110.1731 76° East 509 586 35,600 1,210 Climbing Albuquerque Center
Tue 03:16:43 PM 33.7669 -109.9742 76° East 515 593 36,800 677 Climbing Albuquerque Center
Tue 03:17:45 PM 33.8000 -109.8106 76° East 510 587 37,000 98 Climbing Albuquerque Center
Tue 03:18:46 PM 33.8344 -109.6450 76° East 513 590 37,000  Level Albuquerque Center
Tue 03:19:48 PM 33.8667 -109.4822 77° East 507 583 37,000  Level Albuquerque Center
Tue 03:20:50 PM 33.8983 -109.3258 76° East 495 570 37,000  Level Albuquerque Center
Tue 03:21:51 PM 33.9283 -109.1739 77° East 479 551 37,000  Level Albuquerque Center
Tue 03:22:53 PM 33.9658 -108.9897 76° East 475 547 37,000  Level Albuquerque Center
Tue 03:23:55 PM 33.9972 -108.8328 76° East 479 551 37,000  Level Albuquerque Center
Tue 03:24:57 PM 34.0275 -108.6758 77° East 483 556 37,000  Level Albuquerque Center
Tue 03:25:58 PM 34.0575 -108.5197 77° East 482 555 37,000  Level Albuquerque Center
Tue 03:27:00 PM 34.0881 -108.3614 77° East 486 559 37,000  Level Albuquerque Center
Tue 03:28:02 PM 34.1178 -108.2036 77° East 487 560 37,000  Level Albuquerque Center
Tue 03:29:04 PM 34.1469 -108.0339 78° East 478 550 37,000  Level Albuquerque Center
Tue 03:30:06 PM 34.1781 -107.8742 77° East 484 557 37,000  Level Albuquerque Center
Tue 03:31:07 PM 34.2100 -107.7086 77° East 498 573 37,000  Level Albuquerque Center
Tue 03:32:09 PM 34.2467 -107.5106 77° East 504 580 37,000  Level Albuquerque Center
Tue 03:33:11 PM 34.2756 -107.3472 78° East 499 574 37,000 -48 Level Albuquerque Center
Tue 03:34:13 PM 34.2992 -107.1842 80° East 495 570 36,900  Descending Albuquerque Center
Tue 03:35:15 PM 34.3225 -107.0394 79° East 485 558 37,000 48 Climbing Albuquerque Center
Tue 03:36:17 PM 34.3500 -106.8442 80° East 491 565 37,000  Level Albuquerque Center
Tue 03:37:19 PM 34.3736 -106.6844 80° East 489 563 37,000  Level Albuquerque Center
Tue 03:38:20 PM 34.3972 -106.5231 80° East 489 563 37,000  Level Albuquerque Center
Tue 03:39:22 PM 34.4203 -106.3606 80° East 492 566 37,000  Level Albuquerque Center
Tue 03:40:24 PM 34.4447 -106.1933 80° East 489 563 37,000  Level Albuquerque Center
Tue 03:41:26 PM 34.4675 -106.0306 80° East 486 559 37,000  Level Albuquerque Center
Tue 03:42:28 PM 34.4897 -105.8667 81° East 489 563 37,000  Level Albuquerque Center
Tue 03:43:29 PM 34.5175 -105.6733 80° East 494 568 37,000  Level Albuquerque Center
Tue 03:44:31 PM 34.5411 -105.5042 80° East 502 578 37,000  Level Albuquerque Center
Tue 03:45:33 PM 34.5644 -105.3356 80° East 504 580 37,000  Level Albuquerque Center
Tue 03:46:35 PM 34.5867 -105.1678 81° East 501 577 37,000  Level Albuquerque Center
Tue 03:47:37 PM 34.6086 -105.0008 81° East 499 574 37,000  Level Albuquerque Center
Tue 03:48:38 PM 34.6311 -104.8331 81° East 500 575 37,000  Level Albuquerque Center
Tue 03:49:40 PM 34.6533 -104.6664 81° East 499 574 37,000 145 Level Albuquerque Center
Tue 03:50:42 PM 34.6794 -104.4739 81° East 495 570 37,300 629 Climbing Albuquerque Center
Tue 03:51:44 PM 34.7011 -104.3028 81° East 505 581 38,300 829 Climbing Albuquerque Center
Tue 03:52:45 PM 34.7211 -104.1342 82° East 505 581 39,000 341 Climbing Albuquerque Center
Tue 03:53:47 PM 34.7428 -103.9661 81° East 503 579 39,000  Level Albuquerque Center
Tue 03:54:49 PM 34.7633 -103.7969 82° East 504 580 39,000  Level Albuquerque Center
Tue 03:55:50 PM 34.7839 -103.6281 82° East 504 580 39,000  Level Albuquerque Center
Tue 03:56:52 PM 34.8047 -103.4581 81° East 505 581 39,000  Level Albuquerque Center
Tue 03:57:54 PM 34.8253 -103.2867 82° East 508 585 39,000  Level Albuquerque Center
Tue 03:58:55 PM 34.8489 -103.0869 82° East 508 585 39,000  Level Albuquerque Center
Tue 03:59:57 PM 34.8689 -102.9158 82° East 509 586 39,000  Level Albuquerque Center
Tue 04:00:59 PM 34.8775 -102.7450 86° East 503 579 39,000  Level Albuquerque Center
Tue 04:02:01 PM 34.8797 -102.5808 89° East 499 574 39,000  Level Albuquerque Center
Tue 04:03:02 PM 34.8847 -102.4144 88° East 496 571 39,000  Level Albuquerque Center
Tue 04:04:04 PM 34.8872 -102.2478 89° East 495 570 39,000  Level Albuquerque Center
Tue 04:05:06 PM 34.8919 -102.0494 88° East 494 568 39,000  Level Albuquerque Center
Tue 04:06:07 PM 34.8933 -101.8853 89° East 492 566 39,000  Level Albuquerque Center
Tue 04:07:09 PM 34.8969 -101.7203 88° East 493 567 39,000  Level Albuquerque Center
Tue 04:08:11 PM 34.8989 -101.5528 89° East 499 574 39,000  Level Albuquerque Center
Tue 04:09:13 PM 34.9014 -101.3867 89° East 499 574 39,000  Level Albuquerque Center
Tue 04:10:14 PM 34.9047 -101.2200 89° East 497 572 39,000  Level Albuquerque Center
Tue 04:11:16 PM 34.9067 -101.0192 89° East 498 573 39,000  Level Albuquerque Center
Tue 04:12:18 PM 34.9081 -100.8517 89° East 498 573 39,000  Level Albuquerque Center
Tue 04:13:20 PM 34.9097 -100.6833 89° East 499 574 39,000  Level Albuquerque Center
Tue 04:14:21 PM 34.9114 -100.5156 89° East 498 573 39,000  Level Albuquerque Center
Tue 04:15:23 PM 34.9117 -100.3292 90° East 498 573 39,000  Level Albuquerque Center
Tue 04:16:25 PM 34.9139 -100.1611 89° East 497 572 39,000  Level Albuquerque Center
Tue 04:17:27 PM 34.9128 -99.9933 90° East 496 571 39,000  Level Albuquerque Center
Tue 04:18:29 PM 34.9139 -99.8258 89° East 495 570 39,000  Level Albuquerque Center
Tue 04:19:30 PM 34.9139 -99.6606 90° East 491 565 39,000  Level Albuquerque Center
Tue 04:20:27 PM 34.9111 -99.4972 91° East 488 562 39,000  Level Fort Worth Center
Tue 04:21:27 PM 34.9117 -99.3328 90° East 488 562 39,000  Level Fort Worth Center
Tue 04:22:27 PM 34.9100 -99.1681 91° East 488 562 39,000  Level Fort Worth Center
Tue 04:23:27 PM 34.9100 -99.0011 90° East 488 562 39,000  Level Fort Worth Center
Tue 04:24:27 PM 34.9081 -98.8364 91° East 488 562 39,000  Level Fort Worth Center
Tue 04:25:27 PM 34.9056 -98.6744 91° East 483 556 39,000  Level Fort Worth Center
Tue 04:26:27 PM 34.9050 -98.5097 90° East 478 550 39,000  Level Fort Worth Center
Tue 04:27:27 PM 34.9022 -98.3503 91° East 472 543 39,000  Level Fort Worth Center
Tue 04:28:27 PM 34.9011 -98.1858 90° East 478 550 39,000  Level Fort Worth Center
Tue 04:29:27 PM 34.8978 -98.0186 91° East 478 550 39,000  Level Fort Worth Center
Tue 04:30:27 PM 34.8944 -97.8539 91° East 478 550 39,000  Level Fort Worth Center
Tue 04:31:27 PM 34.8928 -97.6894 91° East 478 550 39,000  Level Fort Worth Center
Tue 04:32:27 PM 34.8889 -97.5022 91° East 491 565 39,000  Level Fort Worth Center
Tue 04:33:27 PM 34.8869 -97.3325 91° East 496 571 39,000  Level Fort Worth Center
Tue 04:34:27 PM 34.8803 -97.1606 93° East 496 571 39,000  Level Fort Worth Center
Tue 04:35:27 PM 34.8758 -96.9933 92° East 496 571 39,000  Level Fort Worth Center
Tue 04:36:27 PM 34.8750 -96.8264 90° East 496 571 39,000  Level Fort Worth Center
Tue 04:37:27 PM 34.8700 -96.6569 92° East 496 571 39,000  Level Fort Worth Center
Tue 04:38:27 PM 34.8669 -96.4900 91° East 496 571 39,000  Level Fort Worth Center
Tue 04:39:27 PM 34.8614 -96.3203 92° East 496 571 39,000  Level Fort Worth Center
Tue 04:40:27 PM 34.8556 -96.1533 92° East 496 571 39,000  Level Fort Worth Center
Tue 04:41:27 PM 34.8517 -95.9864 92° East 496 571 39,000  Level Fort Worth Center
Tue 04:42:27 PM 34.8456 -95.8197 93° East 496 571 39,000  Level Fort Worth Center
Tue 04:44:53 PM 34.8353 -95.4322 92° East 506 582 39,000  Level Memphis Center
Tue 04:45:53 PM 34.8294 -95.2625 92° East 495 570 39,000  Level Memphis Center
Tue 04:46:54 PM 34.8233 -95.0978 93° East 495 570 39,000  Level Memphis Center
Tue 04:47:54 PM 34.8172 -94.9306 93° East 495 570 39,000  Level Memphis Center
Tue 04:48:53 PM 34.8086 -94.7656 94° East 495 570 39,000 -1,210 Level Memphis Center
Tue 04:49:53 PM 34.8039 -94.5958 92° East 501 577 36,600 -2,479 Descending Memphis Center
Tue 04:50:54 PM 34.7972 -94.4261 93° East 501 577 34,000 -2,600 Descending Memphis Center
Tue 04:51:53 PM 34.7883 -94.2436 93° East 504 580 31,400 -2,350 Descending Memphis Center
Tue 04:52:54 PM 34.7786 -94.0839 94° East 486 559 29,300 -2,050 Descending Memphis Center
Tue 04:53:53 PM 34.7725 -93.9344 93° East 471 542 27,300 -1,950 Descending Memphis Center
Tue 04:54:54 PM 34.7664 -93.7850 93° East 456 525 25,400 -1,900 Descending Memphis Center
Tue 04:55:53 PM 34.7597 -93.6458 93° East 435 501 23,500 -1,866 Descending Memphis Center
Tue 04:56:53 PM 34.7506 -93.5089 95° East 417 480 21,700 -1,736 Descending Memphis Center
Tue 04:57:54 PM 34.7456 -93.3750 93° East 398 458 20,000 -1,750 Descending Memphis Center
Tue 04:58:53 PM 34.7381 -93.2483 94° East 385 443 18,200 -1,765 Descending Memphis Center
Tue 04:59:53 PM 34.7306 -93.1242 94° East 379 436 16,500 -1,700 Descending Memphis Center
Tue 05:00:53 PM 34.7247 -93.0053 93° East 372 428 14,800 -1,606 Descending Memphis Center
Tue 05:02:00 PM 34.7150 -92.8761 95° East 354 407 13,100 -1,500 Descending Memphis Center
Tue 05:03:01 PM 34.7089 -92.7597 94° East 333 383 11,600 -1,368 Descending Memphis Center
Tue 05:03:54 PM 34.7192 -92.6614 83° East 340 391 10,500 -1,446 Descending Memphis Center
Tue 05:04:53 PM 34.7336 -92.5556 81° East 325 374 8,900 -1,664 Descending Memphis Center
Tue 05:05:53 PM 34.7478 -92.4550 80° East 309 356 7,200 -1,450 Descending Memphis Center
Tue 05:06:53 PM 34.7639 -92.3592 78° East 298 343 6,000 -1,300 Descending Memphis Center
Tue 05:07:53 PM 34.7822 -92.2661 76° East 292 336 4,600 -992 Descending Memphis Center
Tue 05:08:54 PM 34.8394 -92.2042 42° Northeast 263 303 4,000 -750 Descending Memphis Center
Tue 05:09:53 PM 34.8361 -92.1333 93° East 213 245 3,100 -908 Descending Memphis Center
Tue 05:10:53 PM 34.7839 -92.1372 183° South 113 130 2,200 -1,083 Descending Memphis Center
Tue 05:12:06 PM 34.7478 -92.1844 227° Southwest 131 151 700 -600 Descending Memphis Center
Tue 05:12:53 PM 34.7314 -92.1714 147° Southeast 102 117 1,000 383 Climbing Memphis Center
Tue 05:16:00 PM 34.7112 -92.2112 321° Northwest  Level FlightAware Approximate
Tue 05:23:00 PM 34.7167 -92.2167 321° Northwest  Level FlightAware Approximate

Login

Don't have an account? Register now (free) for customized features, flight alerts, and more!